createdAt,value
2023-08-11T00:00:54.405Z,1.40
2023-08-11T00:02:56.115Z,0.90
2023-08-11T00:04:58.185Z,1.10
2023-08-11T00:06:59.829Z,1.20
2023-08-11T00:09:01.788Z,1.27
2023-08-11T00:11:03.436Z,1.35
2023-08-11T00:13:07.614Z,0.60
2023-08-11T00:15:09.651Z,1.02
2023-08-11T00:17:12.109Z,1.50
2023-08-11T00:19:14.502Z,1.50
2023-08-11T00:21:16.205Z,1.20
2023-08-11T00:23:17.802Z,1.08
2023-08-11T00:25:19.401Z,0.95
2023-08-11T00:27:21.031Z,0.75
2023-08-11T00:29:22.613Z,1.40
2023-08-11T00:31:24.464Z,1.20
2023-08-11T00:35:33.074Z,1.13
2023-08-11T00:37:35.410Z,0.82
2023-08-11T00:39:37.130Z,0.98
2023-08-11T00:41:38.746Z,0.98
2023-08-11T00:43:40.587Z,1.20
2023-08-11T00:47:52.499Z,0.60
2023-08-11T00:49:54.465Z,1.20
2023-08-11T00:51:56.132Z,0.80
2023-08-11T00:53:59.280Z,0.82
2023-08-11T00:58:10.459Z,1.20
2023-08-11T01:00:17.057Z,1.20
2023-08-11T01:02:18.895Z,0.90
2023-08-11T01:04:21.704Z,0.65
2023-08-11T01:07:37.259Z,0.82
2023-08-11T01:09:48.663Z,1.65
2023-08-11T01:12:07.091Z,0.88
2023-08-11T01:14:20.208Z,0.90
2023-08-11T01:16:24.919Z,0.75
2023-08-11T01:18:29.228Z,1.00
2023-08-11T01:20:32.430Z,1.13
2023-08-11T01:22:36.985Z,1.48
2023-08-11T01:24:39.135Z,0.73
2023-08-11T01:26:40.789Z,0.80
2023-08-11T01:30:50.114Z,1.08
2023-08-11T01:32:55.156Z,0.93
2023-08-11T01:34:56.788Z,0.77
2023-08-11T01:37:02.283Z,1.48
2023-08-11T01:39:05.883Z,1.30
2023-08-11T01:41:07.752Z,1.35
2023-08-11T01:43:12.344Z,0.95
2023-08-11T01:45:16.897Z,1.25
2023-08-11T01:47:20.172Z,0.68
2023-08-11T01:49:25.704Z,1.05
2023-08-11T01:51:28.260Z,0.65
2023-08-11T01:53:29.903Z,1.13
2023-08-11T01:55:31.856Z,1.00
2023-08-11T01:57:39.140Z,0.90
2023-08-11T01:59:43.913Z,0.80
2023-08-11T02:01:45.535Z,1.10
2023-08-11T02:03:47.420Z,0.88
2023-08-11T02:05:49.771Z,0.73
2023-08-11T02:07:53.015Z,0.90
2023-08-11T02:09:55.668Z,0.90
2023-08-11T02:11:57.305Z,0.80
2023-08-11T02:13:58.845Z,1.05
2023-08-11T02:16:00.590Z,0.65
2023-08-11T02:18:02.251Z,0.88
2023-08-11T02:20:23.164Z,0.80
2023-08-11T02:22:25.977Z,0.82
2023-08-11T02:24:27.562Z,0.77
2023-08-11T02:26:29.206Z,1.05
2023-08-11T02:28:30.864Z,1.23
2023-08-11T02:30:33.003Z,0.75
2023-08-11T02:32:34.917Z,0.88
2023-08-11T02:34:37.331Z,0.57
2023-08-11T02:36:38.889Z,0.93
2023-08-11T02:38:41.169Z,0.80
2023-08-11T02:40:43.154Z,0.90
2023-08-11T02:42:49.670Z,0.73
2023-08-11T02:44:51.511Z,0.65
2023-08-11T02:46:53.083Z,0.85
2023-08-11T02:48:54.815Z,0.73
2023-08-11T02:50:56.487Z,0.85
2023-08-11T02:52:58.091Z,1.40
2023-08-11T02:55:00.191Z,0.88
2023-08-11T02:57:02.822Z,1.02
2023-08-11T02:59:04.829Z,0.88
2023-08-11T03:01:06.440Z,0.63
2023-08-11T03:03:08.609Z,0.90
2023-08-11T03:05:13.683Z,0.60
2023-08-11T03:07:17.340Z,0.45
2023-08-11T03:09:18.995Z,0.73
2023-08-11T03:11:20.737Z,0.52
2023-08-11T03:13:22.788Z,1.00
2023-08-11T03:15:24.507Z,0.75
2023-08-11T03:17:26.353Z,0.98
2023-08-11T03:19:27.990Z,0.82
2023-08-11T03:21:29.636Z,0.82
2023-08-11T03:23:31.284Z,0.63
2023-08-11T03:25:33.005Z,0.70
2023-08-11T03:27:35.707Z,1.08
2023-08-11T03:29:37.353Z,0.80
2023-08-11T03:31:38.974Z,0.80
2023-08-11T03:33:40.754Z,1.00
2023-08-11T03:35:42.543Z,0.80
2023-08-11T03:37:44.410Z,0.82
2023-08-11T03:39:47.312Z,0.98
2023-08-11T03:41:49.077Z,0.73
2023-08-11T03:43:50.690Z,0.95
2023-08-11T03:45:52.855Z,0.88
2023-08-11T03:47:54.574Z,1.00
2023-08-11T03:49:56.293Z,0.98
2023-08-11T03:51:58.406Z,0.90
2023-08-11T03:54:03.473Z,0.82
2023-08-11T03:56:08.569Z,0.65
2023-08-11T03:58:10.455Z,0.82
2023-08-11T04:00:16.195Z,1.23
2023-08-11T04:02:17.738Z,0.85
2023-08-11T04:04:19.555Z,1.17
2023-08-11T04:06:21.309Z,0.88
2023-08-11T04:08:22.995Z,0.60
2023-08-11T04:10:25.652Z,0.63
2023-08-11T04:12:27.521Z,0.63
2023-08-11T04:14:29.142Z,1.00
2023-08-11T04:16:30.808Z,1.05
2023-08-11T04:18:32.418Z,0.40
2023-08-11T04:20:34.627Z,0.52
2023-08-11T04:22:39.058Z,1.08
2023-08-11T04:24:40.959Z,0.90
2023-08-11T04:26:42.610Z,0.55
2023-08-11T04:28:44.967Z,0.73
2023-08-11T04:30:46.625Z,1.10
2023-08-11T04:32:48.915Z,0.82
2023-08-11T04:34:50.534Z,0.70
2023-08-11T04:36:52.315Z,0.73
2023-08-11T04:38:54.000Z,0.73
2023-08-11T04:40:55.678Z,0.52
2023-08-11T04:42:57.282Z,0.55
2023-08-11T04:44:59.757Z,1.00
2023-08-11T04:47:01.468Z,1.02
2023-08-11T04:49:03.389Z,0.50
2023-08-11T04:51:05.034Z,0.50
2023-08-11T04:53:06.642Z,0.65
2023-08-11T04:55:08.973Z,0.60
2023-08-11T04:57:10.762Z,0.70
2023-08-11T04:59:13.256Z,1.35
2023-08-11T05:03:22.546Z,0.57
2023-08-11T05:05:24.487Z,0.65
2023-08-11T05:07:26.187Z,0.88
2023-08-11T05:09:27.838Z,0.60
2023-08-11T05:11:30.236Z,0.88
2023-08-11T05:13:31.972Z,0.63
2023-08-11T05:15:33.667Z,0.80
2023-08-11T05:17:35.662Z,1.02
2023-08-11T05:19:37.859Z,0.85
2023-08-11T05:21:40.584Z,0.80
2023-08-11T05:23:42.342Z,0.93
2023-08-11T05:25:44.113Z,0.95
2023-08-11T05:27:46.385Z,1.10
2023-08-11T05:29:49.335Z,0.30
2023-08-11T05:31:51.150Z,0.70
2023-08-11T05:33:53.434Z,0.88
2023-08-11T05:35:54.990Z,0.75
2023-08-11T05:37:57.347Z,0.60
2023-08-11T05:39:59.922Z,0.60
2023-08-11T05:42:01.744Z,1.00
2023-08-11T05:44:04.213Z,0.88
2023-08-11T05:46:08.759Z,0.93
2023-08-11T05:48:10.723Z,0.50
2023-08-11T05:50:12.397Z,0.75
2023-08-11T05:52:14.027Z,0.40
2023-08-11T05:54:15.727Z,1.08
2023-08-11T05:56:17.345Z,1.00
2023-08-11T05:58:18.953Z,0.73
2023-08-11T06:00:21.188Z,0.85
2023-08-11T06:02:23.059Z,0.85
2023-08-11T06:04:24.629Z,0.70
2023-08-11T06:06:27.690Z,0.70
2023-08-11T06:08:29.628Z,0.90
2023-08-11T06:10:32.056Z,1.13
2023-08-11T06:12:33.715Z,0.88
2023-08-11T06:14:35.285Z,0.93
2023-08-11T06:16:36.880Z,0.60
2023-08-11T06:18:39.044Z,0.80
2023-08-11T06:20:42.035Z,0.50
2023-08-11T06:22:44.432Z,0.60
2023-08-11T06:24:46.002Z,0.43
2023-08-11T06:26:47.913Z,0.68
2023-08-11T06:28:49.903Z,0.40
2023-08-11T06:30:51.683Z,0.93
2023-08-11T06:32:53.294Z,1.10
2023-08-11T06:34:55.135Z,1.08
2023-08-11T06:36:56.735Z,0.65
2023-08-11T06:38:58.456Z,0.40
2023-08-11T06:41:00.594Z,0.77
2023-08-11T06:43:02.469Z,0.88
2023-08-11T06:45:05.128Z,0.93
2023-08-11T06:47:07.125Z,0.43
2023-08-11T06:49:09.092Z,0.30
2023-08-11T06:51:10.837Z,0.60
2023-08-11T06:53:12.525Z,0.50
2023-08-11T06:55:14.152Z,0.60
2023-08-11T06:57:18.595Z,0.80
2023-08-11T06:59:20.326Z,0.70
2023-08-11T07:01:21.966Z,0.77
2023-08-11T07:03:24.039Z,1.13
2023-08-11T07:05:26.202Z,0.80
2023-08-11T07:07:27.824Z,0.70
2023-08-11T07:09:29.834Z,0.88
2023-08-11T07:11:31.472Z,0.52
2023-08-11T07:13:33.118Z,0.90
2023-08-11T07:15:37.357Z,0.55
2023-08-11T07:17:40.606Z,0.63
2023-08-11T07:19:42.571Z,0.98
2023-08-11T07:21:44.360Z,0.50
2023-08-11T07:23:46.006Z,0.60
2023-08-11T07:25:47.599Z,0.70
2023-08-11T07:27:49.199Z,0.68
2023-08-11T07:29:50.945Z,0.50
2023-08-11T07:31:52.656Z,0.60
2023-08-11T07:33:54.248Z,0.50
2023-08-11T07:35:55.931Z,0.52
2023-08-11T07:37:57.997Z,0.40
2023-08-11T07:39:59.816Z,0.75
2023-08-11T07:42:04.096Z,0.50
2023-08-11T07:44:06.035Z,0.60
2023-08-11T07:46:07.794Z,0.88
2023-08-11T07:48:09.457Z,0.40
2023-08-11T07:50:11.540Z,0.50
2023-08-11T07:52:13.393Z,0.43
2023-08-11T07:54:15.229Z,0.47
2023-08-11T07:56:16.953Z,0.82
2023-08-11T07:58:19.013Z,0.60
2023-08-11T08:00:25.887Z,0.45
2023-08-11T08:02:27.575Z,0.82
2023-08-11T08:04:29.322Z,0.55
2023-08-11T08:06:33.986Z,0.60
2023-08-11T08:08:35.589Z,0.55
2023-08-11T08:10:37.206Z,0.60
2023-08-11T08:12:39.744Z,0.85
2023-08-11T08:14:44.404Z,0.40
2023-08-11T08:16:46.217Z,0.50
2023-08-11T08:18:48.043Z,1.20
2023-08-11T08:20:49.661Z,0.77
2023-08-11T08:22:51.231Z,1.30
2023-08-11T08:24:53.323Z,0.73
2023-08-11T08:26:55.022Z,0.90
2023-08-11T08:28:56.580Z,1.30
2023-08-11T08:30:58.168Z,0.50
2023-08-11T08:32:59.789Z,0.55
2023-08-11T08:35:01.457Z,0.70
2023-08-11T08:37:03.059Z,0.80
2023-08-11T08:39:06.859Z,0.80
2023-08-11T08:41:11.186Z,0.65
2023-08-11T08:43:12.966Z,0.60
2023-08-11T08:45:15.234Z,1.38
2023-08-11T08:47:19.198Z,0.60
2023-08-11T08:49:26.606Z,0.52
2023-08-11T08:51:29.876Z,0.60
2023-08-11T08:53:32.218Z,0.82
2023-08-11T08:55:34.454Z,0.50
2023-08-11T08:57:36.232Z,0.93
2023-08-11T08:59:38.933Z,0.90
2023-08-11T09:01:42.178Z,1.63
2023-08-11T09:03:44.793Z,1.25
2023-08-11T09:05:46.511Z,0.63
2023-08-11T09:07:48.856Z,0.93
2023-08-11T09:09:50.457Z,1.58
2023-08-11T09:11:52.098Z,0.55
2023-08-11T09:13:54.001Z,0.80
2023-08-11T09:15:55.829Z,1.58
2023-08-11T09:17:59.765Z,0.55
2023-08-11T09:20:01.527Z,0.75
2023-08-11T09:22:03.708Z,0.80
2023-08-11T09:24:10.378Z,0.60
2023-08-11T09:26:12.003Z,0.88
2023-08-11T09:28:13.865Z,1.10
2023-08-11T09:30:15.484Z,1.15
2023-08-11T09:32:17.106Z,0.75
2023-08-11T09:34:19.898Z,0.70
2023-08-11T09:36:21.623Z,0.63
2023-08-11T09:38:26.370Z,0.98
2023-08-11T09:40:28.280Z,0.50
2023-08-11T09:48:54.666Z,0.90
2023-08-11T09:50:59.918Z,0.95
2023-08-11T09:53:05.680Z,0.70
2023-08-11T09:55:10.682Z,0.50
2023-08-11T09:57:14.721Z,0.60
2023-08-11T09:59:20.235Z,0.98
2023-08-11T10:01:22.764Z,0.73
2023-08-11T10:03:31.770Z,0.80
2023-08-11T10:07:43.199Z,0.50
2023-08-11T10:09:46.587Z,0.70
2023-08-11T10:11:48.952Z,1.00
2023-08-11T10:13:50.903Z,1.15
2023-08-11T10:15:53.336Z,0.60
2023-08-11T10:17:58.027Z,0.80
2023-08-11T10:20:05.666Z,0.85
2023-08-11T10:22:08.039Z,0.80
2023-08-11T10:24:10.868Z,0.77
2023-08-11T10:26:13.228Z,0.93
2023-08-11T10:28:16.683Z,1.45
2023-08-11T10:30:19.534Z,0.60
2023-08-11T10:34:30.764Z,0.68
2023-08-11T10:38:39.958Z,1.60
2023-08-11T10:40:41.607Z,1.08
2023-08-11T10:44:51.836Z,1.10
2023-08-11T10:46:53.574Z,1.00
2023-08-11T10:48:59.259Z,0.75
2023-08-11T10:51:02.347Z,1.67
2023-08-11T10:53:08.208Z,0.95
2023-08-11T10:55:11.028Z,0.60
2023-08-11T10:57:12.811Z,1.15
2023-08-11T10:59:17.553Z,0.80
2023-08-11T11:01:19.307Z,1.48
2023-08-11T11:03:21.372Z,1.27
2023-08-11T11:05:23.457Z,1.13
2023-08-11T11:07:26.035Z,1.40
2023-08-11T11:09:29.129Z,1.40
2023-08-11T11:11:32.052Z,0.75
2023-08-11T11:13:33.835Z,0.95
2023-08-11T11:15:35.762Z,0.68
2023-08-11T11:17:39.125Z,1.13
2023-08-11T11:19:41.513Z,1.08
2023-08-11T11:21:43.253Z,1.65
2023-08-11T11:23:49.528Z,1.05
2023-08-11T11:25:51.100Z,1.42
2023-08-11T11:27:52.722Z,0.75
2023-08-11T11:30:00.867Z,1.20
2023-08-11T11:32:07.914Z,1.67
2023-08-11T11:34:10.226Z,1.17
2023-08-11T11:36:12.773Z,1.20
2023-08-11T11:38:14.897Z,0.45
2023-08-11T11:40:17.411Z,1.10
2023-08-11T11:42:19.004Z,1.23
2023-08-11T11:44:21.358Z,0.82
2023-08-11T11:46:23.615Z,0.88
2023-08-11T11:48:25.391Z,0.80
2023-08-11T11:50:30.279Z,0.50
2023-08-11T11:52:32.132Z,0.85
2023-08-11T11:54:35.225Z,0.70
2023-08-11T11:56:39.705Z,0.90
2023-08-11T11:58:45.173Z,0.90
2023-08-11T12:00:47.513Z,0.85
2023-08-11T12:02:49.222Z,1.35
2023-08-11T12:04:51.230Z,1.10
2023-08-11T12:06:53.030Z,0.63
2023-08-11T12:09:05.062Z,0.82
2023-08-11T12:11:08.747Z,0.93
2023-08-11T12:13:10.388Z,0.73
2023-08-11T12:15:14.580Z,1.10
2023-08-11T12:17:16.236Z,1.30
2023-08-11T12:19:19.687Z,0.73
2023-08-11T12:21:21.756Z,0.77
2023-08-11T12:23:24.777Z,1.13
2023-08-11T12:25:26.417Z,0.47
2023-08-11T12:27:29.628Z,1.15
2023-08-11T12:29:31.245Z,1.20
2023-08-11T12:31:32.817Z,1.00
2023-08-11T12:33:34.617Z,1.27
2023-08-11T12:35:36.519Z,0.95
2023-08-11T12:37:38.943Z,1.13
2023-08-11T12:39:41.341Z,0.50
2023-08-11T12:41:42.951Z,0.70
2023-08-11T12:43:44.592Z,0.77
2023-08-11T12:45:46.358Z,0.65
2023-08-11T12:47:48.352Z,1.48
2023-08-11T12:49:50.678Z,0.93
2023-08-11T12:51:52.486Z,1.23
2023-08-11T12:53:54.180Z,1.60
2023-08-11T12:55:55.739Z,1.33
2023-08-11T12:57:57.479Z,1.10
2023-08-11T12:59:59.394Z,0.50
2023-08-11T13:02:01.005Z,0.88
2023-08-11T13:04:05.005Z,1.35
2023-08-11T13:06:06.645Z,0.82
2023-08-11T13:08:08.358Z,0.85
2023-08-11T13:10:11.812Z,1.73
2023-08-11T13:12:13.619Z,1.00
2023-08-11T13:14:15.322Z,2.30
2023-08-11T13:16:17.377Z,1.30
2023-08-11T13:18:19.169Z,0.68
2023-08-11T13:20:22.214Z,1.40
2023-08-11T13:22:23.929Z,1.75
2023-08-11T13:24:25.520Z,0.90
2023-08-11T13:26:27.155Z,1.00
2023-08-11T13:28:28.817Z,0.88
2023-08-11T13:30:32.375Z,0.80
2023-08-11T13:32:34.237Z,0.88
2023-08-11T13:34:35.896Z,1.08
2023-08-11T13:36:37.534Z,0.65
2023-08-11T13:38:39.141Z,1.15
2023-08-11T13:40:40.732Z,1.10
2023-08-11T13:42:43.541Z,0.93
2023-08-11T13:44:45.410Z,1.02
2023-08-11T13:46:47.158Z,2.05
2023-08-11T13:48:48.818Z,1.63
2023-08-11T13:50:50.485Z,1.02
2023-08-11T13:52:52.228Z,1.33
2023-08-11T13:54:58.714Z,1.02
2023-08-11T13:57:00.338Z,0.90
2023-08-11T13:59:02.785Z,1.50
2023-08-11T14:01:04.602Z,1.67
2023-08-11T14:03:06.401Z,0.95
2023-08-11T14:05:08.561Z,1.05
2023-08-11T14:07:22.967Z,1.05
2023-08-11T14:09:30.528Z,0.75
2023-08-11T14:11:32.367Z,0.95
2023-08-11T14:13:34.270Z,0.88
2023-08-11T14:15:36.795Z,1.27
2023-08-11T14:17:38.519Z,1.00
2023-08-11T14:19:40.292Z,0.77
2023-08-11T14:21:42.563Z,0.93
2023-08-11T14:23:44.555Z,2.05
2023-08-11T14:25:47.540Z,1.40
2023-08-11T14:27:49.233Z,1.50
2023-08-11T14:29:50.893Z,0.90
2023-08-11T14:31:52.580Z,0.98
2023-08-11T14:33:54.353Z,1.25
2023-08-11T14:36:03.506Z,0.82
2023-08-11T14:38:05.396Z,1.23
2023-08-11T14:40:08.238Z,1.20
2023-08-11T14:42:10.105Z,1.35
2023-08-11T14:44:11.896Z,1.70
2023-08-11T14:46:13.967Z,0.98
2023-08-11T14:48:15.706Z,1.15
2023-08-11T14:50:17.789Z,1.33
2023-08-11T14:52:19.560Z,1.75
2023-08-11T14:54:21.186Z,0.63
2023-08-11T14:56:22.863Z,1.83
2023-08-11T14:58:24.545Z,1.00
2023-08-11T15:00:26.215Z,0.98
2023-08-11T15:02:27.954Z,0.98
2023-08-11T15:04:29.689Z,1.60
2023-08-11T15:06:31.337Z,0.88
2023-08-11T15:08:33.128Z,1.17
2023-08-11T15:10:35.183Z,1.48
2023-08-11T15:12:36.800Z,0.93
2023-08-11T15:14:38.513Z,1.25
2023-08-11T15:16:40.195Z,0.52
2023-08-11T15:18:42.473Z,0.90
2023-08-11T15:20:44.022Z,0.70
2023-08-11T15:22:45.689Z,1.80
2023-08-11T15:24:47.351Z,1.00
2023-08-11T15:26:48.960Z,1.00
2023-08-11T15:28:50.979Z,0.88
2023-08-11T15:30:52.850Z,1.45
2023-08-11T15:32:54.537Z,0.63
2023-08-11T15:34:56.456Z,0.95
2023-08-11T15:36:58.198Z,1.58
2023-08-11T15:39:00.632Z,0.98
2023-08-11T15:41:03.398Z,0.60
2023-08-11T15:43:06.677Z,1.15
2023-08-11T15:45:08.946Z,0.85
2023-08-11T15:47:11.063Z,0.95
2023-08-11T15:49:12.630Z,0.60
2023-08-11T15:51:14.250Z,0.60
2023-08-11T15:53:15.903Z,0.70
2023-08-11T15:55:24.944Z,0.68
2023-08-11T15:57:31.795Z,0.77
2023-08-11T15:59:33.658Z,0.60
2023-08-11T16:01:35.462Z,1.02
2023-08-11T16:03:37.233Z,0.95
2023-08-11T16:05:38.981Z,1.27
2023-08-11T16:07:40.586Z,1.70
2023-08-11T16:09:42.165Z,0.57
2023-08-11T16:11:45.777Z,0.80
2023-08-11T16:13:47.421Z,1.15
2023-08-11T16:15:49.061Z,0.80
2023-08-11T16:17:53.308Z,0.70
2023-08-11T16:19:55.100Z,0.70
2023-08-11T16:21:56.745Z,0.77
2023-08-11T16:23:58.336Z,0.63
2023-08-11T16:26:01.133Z,0.80
2023-08-11T16:28:02.921Z,0.77
2023-08-11T16:30:05.982Z,0.82
2023-08-11T16:32:11.114Z,0.57
2023-08-11T16:34:13.010Z,1.08
2023-08-11T16:36:14.635Z,0.65
2023-08-11T16:38:16.260Z,1.00
2023-08-11T16:40:18.047Z,1.00
2023-08-11T16:42:20.053Z,1.02
2023-08-11T16:44:21.724Z,0.77
2023-08-11T16:46:24.279Z,0.40
2023-08-11T16:48:25.915Z,0.65
2023-08-11T16:50:27.567Z,0.55
2023-08-11T16:52:29.204Z,0.65
2023-08-11T16:54:31.072Z,0.60
2023-08-11T16:56:32.660Z,0.82
2023-08-11T16:58:34.526Z,0.68
2023-08-11T17:00:36.711Z,1.30
2023-08-11T17:02:38.404Z,0.40
2023-08-11T17:04:40.112Z,0.80
2023-08-11T17:06:41.928Z,0.40
2023-08-11T17:08:43.593Z,0.80
2023-08-11T17:10:45.381Z,0.80
2023-08-11T17:12:48.896Z,0.30
2023-08-11T17:14:53.579Z,0.65
2023-08-11T17:16:55.282Z,0.90
2023-08-11T17:18:56.992Z,0.40
2023-08-11T17:20:59.728Z,1.38
2023-08-11T17:23:01.336Z,1.00
2023-08-11T17:25:03.243Z,0.63
2023-08-11T17:27:05.563Z,0.55
2023-08-11T17:29:07.274Z,0.40
2023-08-11T17:31:09.119Z,0.57
2023-08-11T17:33:13.839Z,0.70
2023-08-11T17:35:15.984Z,0.63
2023-08-11T17:37:17.622Z,0.80
2023-08-11T17:39:19.468Z,1.13
2023-08-11T17:41:21.447Z,0.52
2023-08-11T17:43:23.060Z,0.80
2023-08-11T17:45:24.632Z,1.05
2023-08-11T17:47:26.284Z,0.50
2023-08-11T17:49:27.850Z,0.85
2023-08-11T17:51:29.751Z,0.50
2023-08-11T17:53:31.532Z,0.57
2023-08-11T17:55:33.949Z,1.50
2023-08-11T17:57:36.134Z,0.73
2023-08-11T17:59:37.734Z,0.40
2023-08-11T18:01:39.698Z,0.52
2023-08-11T18:03:41.467Z,1.30
2023-08-11T18:05:43.148Z,1.00
2023-08-11T18:07:45.567Z,0.50
2023-08-11T18:09:47.347Z,1.05
2023-08-11T18:11:49.133Z,0.85
2023-08-11T18:13:50.817Z,1.45
2023-08-11T18:15:52.522Z,0.88
2023-08-11T18:17:54.940Z,1.00
2023-08-11T18:19:56.537Z,0.73
2023-08-11T18:21:58.152Z,0.93
2023-08-11T18:23:59.891Z,0.80
2023-08-11T18:26:02.045Z,1.23
2023-08-11T18:28:03.888Z,1.33
2023-08-11T18:30:06.485Z,0.60
2023-08-11T18:32:08.380Z,0.80
2023-08-11T18:34:10.621Z,1.25
2023-08-11T18:36:12.372Z,0.88
2023-08-11T18:38:13.996Z,0.68
2023-08-11T18:40:15.957Z,0.90
2023-08-11T18:42:17.550Z,0.75
2023-08-11T18:44:19.369Z,1.15
2023-08-11T18:46:21.080Z,1.02
2023-08-11T18:48:22.938Z,0.30
2023-08-11T18:50:24.605Z,0.45
2023-08-11T18:52:26.406Z,0.82
2023-08-11T18:54:28.142Z,1.15
2023-08-11T18:56:30.543Z,0.47
2023-08-11T18:58:32.226Z,0.88
2023-08-11T19:00:33.840Z,0.77
2023-08-11T19:02:35.804Z,1.48
2023-08-11T19:04:37.509Z,1.42
2023-08-11T19:06:41.497Z,0.82
2023-08-11T19:08:44.131Z,1.05
2023-08-11T19:10:46.035Z,0.60
2023-08-11T19:12:47.694Z,1.45
2023-08-11T19:14:49.394Z,1.10
2023-08-11T19:16:51.075Z,1.60
2023-08-11T19:18:52.725Z,1.42
2023-08-11T19:20:54.615Z,1.02
2023-08-11T19:22:57.286Z,1.90
2023-08-11T19:24:58.859Z,2.63
2023-08-11T19:27:00.468Z,2.97
2023-08-11T19:29:02.240Z,3.42
2023-08-11T19:31:04.017Z,2.22
2023-08-11T19:33:05.654Z,2.28
2023-08-11T19:35:07.755Z,2.60
2023-08-11T19:37:09.486Z,2.15
2023-08-11T19:39:11.181Z,2.10
2023-08-11T19:41:12.909Z,2.70
2023-08-11T19:43:14.670Z,2.28
2023-08-11T19:45:16.268Z,2.50
2023-08-11T19:47:17.876Z,2.95
2023-08-11T19:49:22.881Z,3.80
2023-08-11T19:51:24.542Z,3.35
2023-08-11T19:53:27.481Z,4.35
2023-08-11T19:55:29.018Z,3.67
2023-08-11T19:57:30.760Z,4.00
2023-08-11T19:59:32.298Z,3.90
2023-08-11T20:01:33.910Z,3.05
2023-08-11T20:03:35.669Z,3.70
2023-08-11T20:05:47.180Z,3.70
2023-08-11T20:07:48.855Z,4.00
2023-08-11T20:09:50.481Z,3.58
2023-08-11T20:11:52.357Z,3.97
2023-08-11T20:13:54.024Z,3.90
2023-08-11T20:16:00.993Z,4.18
2023-08-11T20:18:02.779Z,4.65
2023-08-11T20:20:05.471Z,3.33
2023-08-11T20:22:07.322Z,3.80
2023-08-11T20:24:09.487Z,3.83
2023-08-11T20:26:11.201Z,4.47
2023-08-11T20:28:12.963Z,3.47
2023-08-11T20:30:14.868Z,3.72
2023-08-11T20:32:16.602Z,3.92
2023-08-11T20:34:18.424Z,4.07
2023-08-11T20:36:20.192Z,4.05
2023-08-11T20:38:21.771Z,4.45
2023-08-11T20:40:23.378Z,4.07
2023-08-11T20:42:25.075Z,4.25
2023-08-11T20:44:26.706Z,4.57
2023-08-11T20:46:28.270Z,4.05
2023-08-11T20:48:30.461Z,4.38
2023-08-11T20:50:35.431Z,4.07
2023-08-11T20:52:37.046Z,4.22
2023-08-11T20:54:40.254Z,4.30
2023-08-11T20:56:41.883Z,3.47
2023-08-11T20:58:43.482Z,3.80
2023-08-11T21:00:46.486Z,4.18
2023-08-11T21:02:48.255Z,4.15
2023-08-11T21:04:49.913Z,4.10
2023-08-11T21:06:51.582Z,4.28
2023-08-11T21:08:53.166Z,4.15
2023-08-11T21:10:54.920Z,3.58
2023-08-11T21:12:56.535Z,3.63
2023-08-11T21:14:58.498Z,3.50
2023-08-11T21:17:02.402Z,2.80
2023-08-11T21:19:05.163Z,4.15
2023-08-11T21:21:06.744Z,4.30
2023-08-11T21:23:08.452Z,4.32
2023-08-11T21:25:10.103Z,3.88
2023-08-11T21:27:12.095Z,3.53
2023-08-11T21:29:14.016Z,3.28
2023-08-11T21:31:18.704Z,3.35
2023-08-11T21:33:20.946Z,3.30
2023-08-11T21:35:22.607Z,4.65
2023-08-11T21:37:24.280Z,3.65
2023-08-11T21:39:26.084Z,3.28
2023-08-11T21:41:31.740Z,3.83
2023-08-11T21:43:33.507Z,4.65
2023-08-11T21:45:35.105Z,3.33
2023-08-11T21:47:36.874Z,3.67
2023-08-11T21:49:40.948Z,3.53
2023-08-11T21:51:43.756Z,2.75
2023-08-11T21:53:45.416Z,3.58
2023-08-11T21:55:47.034Z,4.32
2023-08-11T21:57:48.630Z,2.83
2023-08-11T21:59:50.353Z,2.90
2023-08-11T22:01:51.965Z,3.55
2023-08-11T22:03:53.613Z,3.40
2023-08-11T22:05:55.542Z,2.65
2023-08-11T22:07:57.995Z,3.80
2023-08-11T22:09:59.876Z,3.28
2023-08-11T22:12:01.454Z,2.60
2023-08-11T22:14:03.376Z,2.40
2023-08-11T22:16:05.210Z,3.00
2023-08-11T22:18:06.874Z,3.05
2023-08-11T22:20:09.336Z,2.95
2023-08-11T22:22:14.996Z,3.08
2023-08-11T22:24:24.077Z,3.22
2023-08-11T22:26:32.578Z,2.78
2023-08-11T22:28:34.289Z,2.75
2023-08-11T22:30:36.212Z,2.42
2023-08-11T22:32:37.985Z,2.88
2023-08-11T22:34:39.546Z,2.30
2023-08-11T22:36:41.135Z,2.33
2023-08-11T22:38:42.896Z,2.17
2023-08-11T22:40:44.566Z,2.80
2023-08-11T22:42:46.165Z,2.63
2023-08-11T22:44:48.377Z,2.10
2023-08-11T22:46:51.109Z,1.63
2023-08-11T22:48:52.835Z,2.03
2023-08-11T22:50:55.074Z,2.58
2023-08-11T22:52:56.720Z,2.42
2023-08-11T22:54:58.352Z,2.42
2023-08-11T22:56:59.973Z,1.65
2023-08-11T22:59:01.774Z,2.30
2023-08-11T23:01:03.371Z,1.85
2023-08-11T23:03:06.410Z,2.55
2023-08-11T23:05:09.272Z,1.58
2023-08-11T23:07:11.085Z,1.65
2023-08-11T23:09:13.002Z,2.58
2023-08-11T23:11:14.586Z,2.25
2023-08-11T23:13:16.288Z,1.70
2023-08-11T23:15:19.062Z,1.95
2023-08-11T23:17:26.128Z,2.20
2023-08-11T23:19:27.719Z,1.88
2023-08-11T23:21:30.324Z,2.05
2023-08-11T23:23:31.915Z,1.75
2023-08-11T23:25:34.172Z,2.17
2023-08-11T23:27:35.971Z,1.75
2023-08-11T23:29:37.950Z,1.50
2023-08-11T23:31:42.869Z,1.73
2023-08-11T23:33:45.085Z,1.75
2023-08-11T23:35:46.904Z,1.67
2023-08-11T23:37:48.518Z,1.80
2023-08-11T23:39:50.127Z,1.98
2023-08-11T23:41:52.027Z,1.60
2023-08-11T23:43:53.617Z,1.98
2023-08-11T23:45:56.120Z,1.50
2023-08-11T23:47:58.581Z,2.22
2023-08-11T23:50:00.445Z,1.13
2023-08-11T23:52:02.022Z,1.92
2023-08-11T23:54:03.906Z,1.70
2023-08-11T23:56:05.516Z,1.55
2023-08-11T23:58:07.205Z,1.67
